createdAt,value
2023-04-19T00:02:02.930Z,12.17
2023-04-19T00:04:30.306Z,12.53
2023-04-19T00:06:58.574Z,13.30
2023-04-19T00:09:25.435Z,13.70
2023-04-19T00:11:52.888Z,12.83
2023-04-19T00:14:19.979Z,15.07
2023-04-19T00:16:47.024Z,14.20
2023-04-19T00:19:13.794Z,15.13
2023-04-19T00:21:41.352Z,13.60
2023-04-19T00:24:08.161Z,14.40
2023-04-19T00:26:34.970Z,15.40
2023-04-19T00:29:01.911Z,14.73
2023-04-19T00:31:28.707Z,13.60
2023-04-19T00:33:56.602Z,13.40
2023-04-19T00:36:23.702Z,14.88
2023-04-19T00:38:50.484Z,14.63
2023-04-19T00:41:17.224Z,16.07
2023-04-19T00:43:43.992Z,15.07
2023-04-19T00:46:10.878Z,14.73
2023-04-19T00:48:37.748Z,14.97
2023-04-19T00:51:04.985Z,16.20
2023-04-19T00:53:31.758Z,16.40
2023-04-19T00:56:02.284Z,16.00
2023-04-19T00:58:31.557Z,14.43
2023-04-19T01:00:59.939Z,16.65
2023-04-19T01:03:30.305Z,17.80
2023-04-19T01:05:57.371Z,17.47
2023-04-19T01:08:24.283Z,16.27
2023-04-19T01:10:51.020Z,17.88
2023-04-19T01:13:17.743Z,17.87
2023-04-19T01:15:44.639Z,17.83
2023-04-19T01:18:11.402Z,16.77
2023-04-19T01:20:38.177Z,17.33
2023-04-19T01:23:04.955Z,17.87
2023-04-19T01:25:31.855Z,15.95
2023-04-19T01:27:58.635Z,18.00
2023-04-19T01:30:25.344Z,18.57
2023-04-19T01:32:52.085Z,18.10
2023-04-19T01:35:19.068Z,16.93
2023-04-19T01:37:45.774Z,16.80
2023-04-19T01:40:12.943Z,17.07
2023-04-19T01:42:39.637Z,17.43
2023-04-19T01:45:06.838Z,18.23
2023-04-19T01:47:33.686Z,18.77
2023-04-19T01:50:00.412Z,17.83
2023-04-19T01:52:27.086Z,21.00
2023-04-19T01:54:53.849Z,17.47
2023-04-19T01:57:20.651Z,16.23
2023-04-19T01:59:47.331Z,17.23
2023-04-19T02:02:14.136Z,17.50
2023-04-19T02:04:40.865Z,19.87
2023-04-19T02:07:07.984Z,18.43
2023-04-19T02:09:38.802Z,18.05
2023-04-19T02:12:06.095Z,19.00
2023-04-19T02:14:32.903Z,19.42
2023-04-19T02:16:59.652Z,17.57
2023-04-19T02:19:26.352Z,19.40
2023-04-19T02:21:57.537Z,17.87
2023-04-19T02:24:24.854Z,17.38
2023-04-19T02:26:51.739Z,18.77
2023-04-19T02:29:18.643Z,17.90
2023-04-19T02:31:46.570Z,18.00
2023-04-19T02:34:13.731Z,18.42
2023-04-19T02:36:40.707Z,20.30
2023-04-19T02:39:07.394Z,19.60
2023-04-19T02:41:34.124Z,18.95
2023-04-19T02:44:00.909Z,18.33
2023-04-19T02:46:27.726Z,20.50
2023-04-19T02:48:54.520Z,20.17
2023-04-19T02:51:21.365Z,20.53
2023-04-19T02:53:48.117Z,18.13
2023-04-19T02:56:15.645Z,19.90
2023-04-19T02:58:42.353Z,18.73
2023-04-19T03:01:09.569Z,20.13
2023-04-19T03:03:36.606Z,23.47
2023-04-19T03:06:03.528Z,21.20
2023-04-19T03:08:30.362Z,19.27
2023-04-19T03:10:57.094Z,18.88
2023-04-19T03:13:24.231Z,20.50
2023-04-19T03:15:51.071Z,22.38
2023-04-19T03:18:17.990Z,20.75
2023-04-19T03:20:44.865Z,21.02
2023-04-19T03:23:11.544Z,20.70
2023-04-19T03:25:38.248Z,21.42
2023-04-19T03:28:05.413Z,22.23
2023-04-19T03:30:32.177Z,20.33
2023-04-19T03:33:00.128Z,21.53
2023-04-19T03:35:27.048Z,21.03
2023-04-19T03:37:53.829Z,21.80
2023-04-19T03:40:21.000Z,21.20
2023-04-19T03:42:47.747Z,22.02
2023-04-19T03:45:14.486Z,20.63
2023-04-19T03:47:41.354Z,21.33
2023-04-19T03:50:08.784Z,21.38
2023-04-19T03:52:35.531Z,20.67
2023-04-19T03:55:02.449Z,21.67
2023-04-19T03:57:29.173Z,23.60
2023-04-19T03:59:55.943Z,29.13
2023-04-19T04:02:22.795Z,20.73
2023-04-19T04:04:55.802Z,22.90
2023-04-19T04:07:23.256Z,22.45
2023-04-19T04:09:50.283Z,20.25
2023-04-19T04:12:17.010Z,20.40
2023-04-19T04:14:43.984Z,20.60
2023-04-19T04:17:10.679Z,19.88
2023-04-19T04:19:37.460Z,19.10
2023-04-19T04:22:04.905Z,20.00
2023-04-19T04:24:38.339Z,18.20
2023-04-19T04:27:05.804Z,19.88
2023-04-19T04:29:33.215Z,19.70
2023-04-19T04:32:00.210Z,17.77
2023-04-19T04:34:26.946Z,17.85
2023-04-19T04:36:54.122Z,18.90
2023-04-19T04:39:21.033Z,17.90
2023-04-19T04:41:49.623Z,19.02
2023-04-19T04:44:16.690Z,18.58
2023-04-19T04:46:43.516Z,18.10
2023-04-19T04:49:10.454Z,19.27
2023-04-19T04:51:37.692Z,19.33
2023-04-19T04:54:05.528Z,19.17
2023-04-19T04:56:32.427Z,21.67
2023-04-19T04:58:59.316Z,21.37
2023-04-19T05:01:26.145Z,20.77
2023-04-19T05:03:52.902Z,19.60
2023-04-19T05:06:19.677Z,19.25
2023-04-19T05:08:46.374Z,19.08
2023-04-19T05:11:13.201Z,19.30
2023-04-19T05:13:39.889Z,22.30
2023-04-19T05:16:06.929Z,21.25
2023-04-19T05:18:33.709Z,22.90
2023-04-19T05:21:00.497Z,19.60
2023-04-19T05:23:27.221Z,19.80
2023-04-19T05:25:53.982Z,20.08
2023-04-19T05:28:20.723Z,25.55
2023-04-19T05:30:47.845Z,21.40
2023-04-19T05:33:14.712Z,21.42
2023-04-19T05:35:41.583Z,19.73
2023-04-19T05:38:08.297Z,25.10
2023-04-19T05:40:35.756Z,20.13
2023-04-19T05:43:02.473Z,22.80
2023-04-19T05:45:29.229Z,19.92
2023-04-19T05:47:56.328Z,19.67
2023-04-19T05:50:23.139Z,21.43
2023-04-19T05:52:50.108Z,19.87
2023-04-19T05:55:18.092Z,20.58
2023-04-19T05:57:44.927Z,20.90
2023-04-19T06:00:12.713Z,20.63
2023-04-19T06:02:39.473Z,18.93
2023-04-19T06:05:10.315Z,19.70
2023-04-19T06:07:43.403Z,19.20
2023-04-19T06:10:17.652Z,21.42
2023-04-19T06:12:44.894Z,21.95
2023-04-19T06:15:12.467Z,19.88
2023-04-19T06:17:39.360Z,17.27
2023-04-19T06:20:08.332Z,18.20
2023-04-19T06:22:35.247Z,18.45
2023-04-19T06:25:02.560Z,17.25
2023-04-19T06:27:29.360Z,19.90
2023-04-19T06:29:59.703Z,18.60
2023-04-19T06:32:26.831Z,19.42
2023-04-19T06:34:53.691Z,17.67
2023-04-19T06:37:20.507Z,18.00
2023-04-19T06:39:47.291Z,18.08
2023-04-19T06:42:14.128Z,20.05
2023-04-19T06:44:40.929Z,18.55
2023-04-19T06:47:07.732Z,19.53
2023-04-19T06:49:34.960Z,18.23
2023-04-19T06:52:01.887Z,18.67
2023-04-19T06:54:28.824Z,17.73
2023-04-19T06:56:56.767Z,19.30
2023-04-19T06:59:25.167Z,17.43
2023-04-19T07:01:51.974Z,16.87
2023-04-19T07:04:19.140Z,17.65
2023-04-19T07:06:49.901Z,18.20
2023-04-19T07:09:16.700Z,17.00
2023-04-19T07:11:43.476Z,17.70
2023-04-19T07:14:10.319Z,18.80
2023-04-19T07:16:37.488Z,17.20
2023-04-19T07:19:04.237Z,17.70
2023-04-19T07:21:33.504Z,19.17
2023-04-19T07:24:00.437Z,16.50
2023-04-19T07:26:27.226Z,18.37
2023-04-19T07:28:54.014Z,17.17
2023-04-19T07:31:21.233Z,16.77
2023-04-19T07:33:48.050Z,17.30
2023-04-19T07:36:14.756Z,16.57
2023-04-19T07:38:41.694Z,16.00
2023-04-19T07:41:09.097Z,16.40
2023-04-19T07:43:37.295Z,16.80
2023-04-19T07:46:14.064Z,18.60
2023-04-19T07:48:40.987Z,16.23
2023-04-19T07:51:12.111Z,16.30
2023-04-19T07:53:40.137Z,15.37
2023-04-19T07:56:08.071Z,15.93
2023-04-19T07:58:36.050Z,16.70
2023-04-19T08:01:03.943Z,17.33
2023-04-19T08:03:32.253Z,17.60
2023-04-19T08:06:01.944Z,16.00
2023-04-19T08:08:28.706Z,17.60
2023-04-19T08:10:55.405Z,19.03
2023-04-19T08:13:22.390Z,15.80
2023-04-19T08:18:19.203Z,16.43
2023-04-19T08:20:48.979Z,16.00
2023-04-19T08:23:24.200Z,16.97
2023-04-19T08:25:54.439Z,17.23
2023-04-19T08:28:21.213Z,17.10
2023-04-19T08:30:48.953Z,16.70
2023-04-19T08:33:15.989Z,17.40
2023-04-19T08:35:42.841Z,17.60
2023-04-19T08:38:09.702Z,17.27
2023-04-19T08:40:41.649Z,16.90
2023-04-19T08:43:09.772Z,19.70
2023-04-19T08:45:37.131Z,17.17
2023-04-19T08:48:04.955Z,15.97
2023-04-19T08:50:38.946Z,23.60
2023-04-19T08:56:03.373Z,18.03
2023-04-19T08:58:52.009Z,16.07
2023-04-19T09:01:33.875Z,15.90
2023-04-19T09:04:26.588Z,15.87
2023-04-19T09:06:52.345Z,16.30
2023-04-19T09:11:58.400Z,15.73
2023-04-19T09:14:26.875Z,17.20
2023-04-19T09:16:54.190Z,16.37
2023-04-19T09:19:24.964Z,15.40
2023-04-19T09:21:54.560Z,15.97
2023-04-19T09:25:13.942Z,14.63
2023-04-19T09:27:34.100Z,14.30
2023-04-19T09:30:02.164Z,13.27
2023-04-19T09:32:30.086Z,14.00
2023-04-19T09:35:00.486Z,15.20
2023-04-19T09:39:57.208Z,13.37
2023-04-19T09:42:47.353Z,13.23
2023-04-19T09:47:41.049Z,14.60
2023-04-19T09:50:21.764Z,12.67
2023-04-19T09:52:50.942Z,13.10
2023-04-19T09:57:48.920Z,12.57
2023-04-19T10:00:16.148Z,12.57
2023-04-19T10:02:43.619Z,13.17
2023-04-19T10:05:22.342Z,13.43
2023-04-19T10:07:50.369Z,13.17
2023-04-19T10:10:20.705Z,13.17
2023-04-19T10:13:11.657Z,13.07
2023-04-19T10:15:50.122Z,12.77
2023-04-19T10:18:19.562Z,14.20
2023-04-19T10:20:52.688Z,18.60
2023-04-19T10:23:21.878Z,11.57
2023-04-19T10:25:48.827Z,11.00
2023-04-19T10:28:16.660Z,11.90
2023-04-19T10:31:03.021Z,12.13
2023-04-19T10:33:34.283Z,11.67
2023-04-19T10:36:01.837Z,12.20
2023-04-19T10:38:43.182Z,11.40
2023-04-19T10:41:16.875Z,12.30
2023-04-19T10:43:58.190Z,13.20
2023-04-19T10:46:26.136Z,12.93
2023-04-19T10:49:03.413Z,13.20
2023-04-19T10:51:38.659Z,13.37
2023-04-19T10:54:07.305Z,12.57
2023-04-19T10:56:34.239Z,15.20
2023-04-19T10:59:01.312Z,14.77
2023-04-19T11:01:44.881Z,14.23
2023-04-19T11:04:19.278Z,14.73
2023-04-19T11:06:52.458Z,13.37
2023-04-19T11:09:27.172Z,15.10
2023-04-19T11:11:57.344Z,16.13
2023-04-19T11:14:24.613Z,15.13
2023-04-19T11:16:51.393Z,16.10
2023-04-19T11:19:19.450Z,15.47
2023-04-19T11:21:46.996Z,15.50
2023-04-19T11:24:16.125Z,16.37
2023-04-19T11:26:43.948Z,16.70
2023-04-19T11:29:10.853Z,17.00
2023-04-19T11:31:37.825Z,16.57
2023-04-19T11:34:04.880Z,16.20
2023-04-19T11:36:37.007Z,16.70
2023-04-19T11:39:06.930Z,15.33
2023-04-19T11:41:39.844Z,16.40
2023-04-19T11:44:22.680Z,15.97
2023-04-19T11:47:07.491Z,23.60
2023-04-19T11:49:34.410Z,31.30
2023-04-19T11:52:05.500Z,17.93
2023-04-19T11:54:33.153Z,17.93
2023-04-19T11:57:07.721Z,16.07
2023-04-19T11:59:36.324Z,18.10
2023-04-19T12:02:11.940Z,16.80
2023-04-19T12:04:39.788Z,17.07
2023-04-19T12:07:07.262Z,17.87
2023-04-19T12:09:36.134Z,17.70
2023-04-19T12:12:03.408Z,18.10
2023-04-19T12:14:31.520Z,18.00
2023-04-19T12:17:07.871Z,18.03
2023-04-19T12:19:46.280Z,16.43
2023-04-19T12:22:20.369Z,17.43
2023-04-19T12:24:47.669Z,16.10
2023-04-19T12:27:18.183Z,13.60
2023-04-19T12:29:46.089Z,15.30
2023-04-19T12:32:13.429Z,18.80
2023-04-19T12:34:40.160Z,14.40
2023-04-19T12:37:06.876Z,13.20
2023-04-19T12:39:33.620Z,13.67
2023-04-19T12:42:01.372Z,12.60
2023-04-19T12:44:28.220Z,12.40
2023-04-19T12:46:57.561Z,12.87
2023-04-19T12:49:24.799Z,12.93
2023-04-19T12:51:51.519Z,11.87
2023-04-19T12:54:18.358Z,12.57
2023-04-19T12:56:45.107Z,12.83
2023-04-19T12:59:11.898Z,12.70
2023-04-19T13:01:38.865Z,13.03
2023-04-19T13:04:05.941Z,12.90
2023-04-19T13:06:32.906Z,10.80
2023-04-19T13:09:01.088Z,11.40
2023-04-19T13:11:28.401Z,11.70
2023-04-19T13:13:55.287Z,10.87
2023-04-19T13:16:22.648Z,10.30
2023-04-19T13:18:50.979Z,8.33
2023-04-19T13:21:18.064Z,7.27
2023-04-19T13:23:45.218Z,8.10
2023-04-19T13:26:12.081Z,7.80
2023-04-19T13:28:40.621Z,8.40
2023-04-19T13:31:07.362Z,9.00
2023-04-19T13:33:34.432Z,10.50
2023-04-19T13:36:01.314Z,9.37
2023-04-19T13:38:28.090Z,13.23
2023-04-19T13:40:54.798Z,11.73
2023-04-19T13:43:21.890Z,13.50
2023-04-19T13:45:48.657Z,14.10
2023-04-19T13:48:15.400Z,13.63
2023-04-19T13:50:42.171Z,13.88
2023-04-19T13:53:09.054Z,15.17
2023-04-19T13:55:36.386Z,16.47
2023-04-19T13:58:03.121Z,15.93
2023-04-19T14:00:30.134Z,16.07
2023-04-19T14:02:57.052Z,14.52
2023-04-19T14:05:24.204Z,16.05
2023-04-19T14:07:50.935Z,14.88
2023-04-19T14:10:17.955Z,15.02
2023-04-19T14:12:45.103Z,14.50
2023-04-19T14:15:12.669Z,16.70
2023-04-19T14:17:39.521Z,14.27
2023-04-19T14:20:07.583Z,15.00
2023-04-19T14:22:35.451Z,16.35
2023-04-19T14:25:03.991Z,14.50
2023-04-19T14:27:31.022Z,15.43
2023-04-19T14:29:58.214Z,15.23
2023-04-19T14:32:27.094Z,14.45
2023-04-19T14:34:55.904Z,14.65
2023-04-19T14:37:24.291Z,15.38
2023-04-19T14:39:51.405Z,14.80
2023-04-19T14:42:20.132Z,16.60
2023-04-19T14:44:53.251Z,13.55
2023-04-19T14:47:21.156Z,13.73
2023-04-19T14:49:48.083Z,12.68
2023-04-19T14:52:14.993Z,13.85
2023-04-19T14:54:42.297Z,15.02
2023-04-19T14:57:09.229Z,15.65
2023-04-19T14:59:35.971Z,15.25
2023-04-19T15:02:02.907Z,16.92
2023-04-19T15:04:29.912Z,15.18
2023-04-19T15:06:56.797Z,15.85
2023-04-19T15:09:23.728Z,15.00
2023-04-19T15:11:50.505Z,17.23
2023-04-19T15:14:17.721Z,16.90
2023-04-19T15:16:44.502Z,14.52
2023-04-19T15:19:11.238Z,13.38
2023-04-19T15:21:37.993Z,13.90
2023-04-19T15:24:06.101Z,12.63
2023-04-19T15:26:33.146Z,13.68
2023-04-19T15:29:00.002Z,13.35
2023-04-19T15:31:27.003Z,12.17
2023-04-19T15:33:54.196Z,10.93
2023-04-19T15:36:20.913Z,10.57
2023-04-19T15:38:47.720Z,11.45
2023-04-19T15:41:14.441Z,10.80
2023-04-19T15:43:41.218Z,11.77
2023-04-19T15:46:15.533Z,10.45
2023-04-19T15:48:43.980Z,10.77
2023-04-19T15:51:14.753Z,10.13
2023-04-19T15:53:41.861Z,11.10
2023-04-19T15:56:08.652Z,9.65
2023-04-19T15:58:36.550Z,9.48
2023-04-19T16:01:03.314Z,12.27
2023-04-19T16:03:30.319Z,10.00
2023-04-19T16:05:57.154Z,9.32
2023-04-19T16:08:23.946Z,10.55
2023-04-19T16:10:50.682Z,10.25
2023-04-19T16:13:17.552Z,12.55
2023-04-19T16:15:44.882Z,9.77
2023-04-19T16:18:13.058Z,10.85
2023-04-19T16:20:40.597Z,9.05
2023-04-19T16:23:07.542Z,9.50
2023-04-19T16:25:34.713Z,11.25
2023-04-19T16:28:01.620Z,9.20
2023-04-19T16:30:28.505Z,9.90
2023-04-19T16:32:56.614Z,9.25
2023-04-19T16:35:24.147Z,10.20
2023-04-19T16:37:50.974Z,9.40
2023-04-19T16:40:17.865Z,9.18
2023-04-19T16:42:44.621Z,10.32
2023-04-19T16:45:11.415Z,9.93
2023-04-19T16:47:38.321Z,9.60
2023-04-19T16:50:06.218Z,8.80
2023-04-19T16:52:35.444Z,8.20
2023-04-19T16:55:04.303Z,9.70
2023-04-19T16:57:32.016Z,29.90
2023-04-19T16:59:59.059Z,17.00
2023-04-19T17:02:26.118Z,8.88
2023-04-19T17:04:53.128Z,9.10
2023-04-19T17:07:19.940Z,9.53
2023-04-19T17:09:46.826Z,9.20
2023-04-19T17:12:13.797Z,11.60
2023-04-19T17:14:40.830Z,12.60
2023-04-19T17:17:07.690Z,12.07
2023-04-19T17:19:34.462Z,11.18
2023-04-19T17:22:05.265Z,11.27
2023-04-19T17:24:33.247Z,11.00
2023-04-19T17:27:00.320Z,9.63
2023-04-19T17:29:27.518Z,8.20
2023-04-19T17:31:54.617Z,8.10
2023-04-19T17:34:21.442Z,8.02
2023-04-19T17:36:48.177Z,7.00
2023-04-19T17:39:15.201Z,6.90
2023-04-19T17:41:42.189Z,6.22
2023-04-19T17:44:08.901Z,7.27
2023-04-19T17:46:35.795Z,7.18
2023-04-19T17:49:02.719Z,7.15
2023-04-19T17:51:29.429Z,8.15
2023-04-19T17:53:56.510Z,8.00
2023-04-19T17:56:24.162Z,7.10
2023-04-19T17:58:51.324Z,8.73
2023-04-19T18:01:18.185Z,8.20
2023-04-19T18:03:45.168Z,8.33
2023-04-19T18:06:12.384Z,8.35
2023-04-19T18:08:39.186Z,8.23
2023-04-19T18:11:06.913Z,8.50
2023-04-19T18:13:33.727Z,9.77
2023-04-19T18:16:00.656Z,9.50
2023-04-19T18:18:27.514Z,9.82
2023-04-19T18:20:54.323Z,9.95
2023-04-19T18:23:23.447Z,9.65
2023-04-19T18:25:55.929Z,9.70
2023-04-19T18:28:22.768Z,9.68
2023-04-19T18:30:49.591Z,9.85
2023-04-19T18:33:16.382Z,8.80
2023-04-19T18:35:43.209Z,8.88
2023-04-19T18:38:10.001Z,9.77
2023-04-19T18:40:36.755Z,9.25
2023-04-19T18:43:03.582Z,9.67
2023-04-19T18:45:31.400Z,11.77
2023-04-19T18:48:00.083Z,10.63
2023-04-19T18:50:26.922Z,9.10
2023-04-19T18:52:53.812Z,10.60
2023-04-19T18:55:20.707Z,9.80
2023-04-19T18:57:48.481Z,11.07
2023-04-19T19:00:15.952Z,9.57
2023-04-19T19:02:43.961Z,9.85
2023-04-19T19:05:13.922Z,7.90
2023-04-19T19:07:41.792Z,9.27
2023-04-19T19:10:19.063Z,10.10
2023-04-19T19:12:48.920Z,9.37
2023-04-19T19:15:15.888Z,9.67
2023-04-19T19:17:43.291Z,10.53
2023-04-19T19:20:10.480Z,10.13
2023-04-19T19:22:37.317Z,9.23
2023-04-19T19:25:04.560Z,10.23
2023-04-19T19:27:31.601Z,11.57
2023-04-19T19:29:58.909Z,11.55
2023-04-19T19:32:25.975Z,11.27
2023-04-19T19:34:56.255Z,10.13
2023-04-19T19:37:27.803Z,8.85
2023-04-19T19:39:56.448Z,10.52
2023-04-19T19:42:23.740Z,9.50
2023-04-19T19:44:54.516Z,9.93
2023-04-19T19:47:22.131Z,9.30
2023-04-19T19:50:21.314Z,10.00
2023-04-19T19:52:35.978Z,10.13
2023-04-19T19:55:02.827Z,9.38
2023-04-19T19:58:20.661Z,11.10
2023-04-19T20:05:18.702Z,10.20
2023-04-19T20:08:01.134Z,12.70
2023-04-19T20:10:32.884Z,11.90
2023-04-19T20:13:01.535Z,11.95
2023-04-19T20:15:29.887Z,12.63
2023-04-19T20:17:56.698Z,11.85
2023-04-19T20:20:26.407Z,11.63
2023-04-19T20:22:53.316Z,11.05
2023-04-19T20:25:20.163Z,11.00
2023-04-19T20:27:46.892Z,11.68
2023-04-19T20:30:14.096Z,8.75
2023-04-19T20:32:42.721Z,11.23
2023-04-19T20:35:12.236Z,12.30
2023-04-19T20:37:40.340Z,12.40
2023-04-19T20:40:12.154Z,10.67
2023-04-19T20:42:39.059Z,10.55
2023-04-19T20:45:07.851Z,9.40
2023-04-19T20:47:34.604Z,10.55
2023-04-19T20:50:01.374Z,8.40
2023-04-19T20:52:28.103Z,9.30
2023-04-19T20:54:56.626Z,9.03
2023-04-19T20:57:23.347Z,9.52
2023-04-19T20:59:50.908Z,8.98
2023-04-19T21:02:18.055Z,10.57
2023-04-19T21:04:44.869Z,10.75
2023-04-19T21:07:11.562Z,12.05
2023-04-19T21:09:38.371Z,11.63
2023-04-19T21:12:05.156Z,10.85
2023-04-19T21:14:33.614Z,11.65
2023-04-19T21:17:01.849Z,10.52
2023-04-19T21:19:28.914Z,10.95
2023-04-19T21:21:55.867Z,11.75
2023-04-19T21:24:22.861Z,10.60
2023-04-19T21:26:49.584Z,10.35
2023-04-19T21:29:16.821Z,9.73
2023-04-19T21:31:43.875Z,12.10
2023-04-19T21:34:10.651Z,9.98
2023-04-19T21:36:37.439Z,10.00
2023-04-19T21:39:04.292Z,8.10
2023-04-19T21:41:31.056Z,9.32
2023-04-19T21:43:57.763Z,9.38
2023-04-19T21:46:24.547Z,10.10
2023-04-19T21:48:53.512Z,9.85
2023-04-19T21:51:21.790Z,9.57
2023-04-19T21:53:48.521Z,9.70
2023-04-19T21:56:15.326Z,9.70
2023-04-19T21:58:42.174Z,9.30
2023-04-19T22:01:10.073Z,9.20
2023-04-19T22:03:37.954Z,8.85
2023-04-19T22:06:06.562Z,9.90
2023-04-19T22:08:34.218Z,10.63
2023-04-19T22:11:01.631Z,10.07
2023-04-19T22:13:28.447Z,11.05
2023-04-19T22:15:57.205Z,13.18
2023-04-19T22:18:24.216Z,12.50
2023-04-19T22:20:52.149Z,11.88
2023-04-19T22:23:19.109Z,13.35
2023-04-19T22:25:45.990Z,14.40
2023-04-19T22:28:12.871Z,14.32
2023-04-19T22:30:39.591Z,15.38
2023-04-19T22:33:06.595Z,14.90
2023-04-19T22:35:33.566Z,14.93
2023-04-19T22:38:00.390Z,17.00
2023-04-19T22:40:27.186Z,16.02
2023-04-19T22:42:53.997Z,15.93
2023-04-19T22:45:23.455Z,16.02
2023-04-19T22:47:50.255Z,16.00
2023-04-19T22:50:17.104Z,16.10
2023-04-19T22:52:44.606Z,16.60
2023-04-19T22:55:11.635Z,15.15
2023-04-19T22:57:38.439Z,17.05
2023-04-19T23:00:07.099Z,16.13
2023-04-19T23:02:33.915Z,15.05
2023-04-19T23:05:00.833Z,14.85
2023-04-19T23:07:28.766Z,14.20
2023-04-19T23:09:56.125Z,14.70
2023-04-19T23:12:24.125Z,13.65
2023-04-19T23:14:51.163Z,13.50
2023-04-19T23:17:18.215Z,12.82
2023-04-19T23:19:45.187Z,13.77
2023-04-19T23:22:11.946Z,12.60
2023-04-19T23:24:38.689Z,11.45
2023-04-19T23:27:05.745Z,13.05
2023-04-19T23:29:32.535Z,12.70
2023-04-19T23:32:01.093Z,13.25
2023-04-19T23:34:27.872Z,11.98
2023-04-19T23:36:54.607Z,13.10
2023-04-19T23:39:21.552Z,13.50
2023-04-19T23:41:48.253Z,13.15
2023-04-19T23:44:15.038Z,11.90
2023-04-19T23:46:42.002Z,12.90
2023-04-19T23:49:08.813Z,11.90
2023-04-19T23:51:36.352Z,12.35
2023-04-19T23:54:03.423Z,13.73
2023-04-19T23:56:30.467Z,12.45
2023-04-19T23:58:57.572Z,12.63
